CMA-CGM Fort Saint Pierre — FQFM — position and weather

sailwx.info

Track history (hours):
 
Tides and Currents Weather Stations Pressure Air Temp Water Temp Dewpoint Dewpoint Depression Visibility Wind Speed Wind Dir Waves Ship Positions

CMA-CGM Fort Saint Pierre

Last reported at 2017-Nov-20 00:30 UTC. Time now 2017-Nov-23 09:40 UTC.
Position N 45°48' W 005°45'.

Length 197 m; beam 30 m.

Type: Ship (hazmat cat D). MMSI: 226328000.

Date/timePositionNaut miles runAvg speedWind from/ knotsBaromVisibWave heightAir tempDewpointWater temp
2017-Nov-20 00:30N 45°48' W 005°45'918.8
2017-Nov-20 00:01N 45°53' W 005°33'1219.1
2017-Nov-19 23:23N 45°59' W 005°18'1019.3
2017-Nov-19 22:50N 46°04' W 005°05'1119.3
2017-Nov-19 22:15N 46°10' W 004°51'819.4
2017-Nov-19 21:51N 46°13' W 004°41'819.8
2017-Nov-19 21:28N 46°17' W 004°31'919.8
2017-Nov-19 21:01N 46°22' W 004°20'1019.8
2017-Nov-19 20:31N 46°27' W 004°08'1619.7
2017-Nov-19 19:42N 46°34' W 003°48'419.5
2017-Nov-19 19:30N 46°36' W 003°42'1219.7
2017-Nov-19 18:53N 46°42' W 003°27'1319.5
2017-Nov-19 18:13N 46°49' W 003°10'1819.3
2017-Nov-19 17:17N 46°58' W 002°48'519.1
2017-Nov-19 17:00N 47°00' W 002°41'918.8
2017-Nov-19 16:30N 47°04' W 002°29'713.3
2017-Nov-19 16:00N 47°08' W 002°21'713.8
2017-Nov-19 15:30N 47°14' W 002°16'611.3
2017-Nov-19 15:00N 47°18' W 002°09'0 0.3
2017-Nov-19 14:29N 47°18' W 002°09'0 0.0
2017-Nov-19 13:34N 47°18' W 002°09'0 0.0
2017-Nov-19 13:19N 47°18' W 002°09'0 0.0
2017-Nov-19 12:58N 47°18' W 002°09'0 0.0
2017-Nov-19 12:28N 47°18' W 002°09'0 0.0
2017-Nov-19 11:52N 47°18' W 002°09'0 0.0
2017-Nov-19 11:22N 47°18' W 002°09'0 0.0
2017-Nov-19 10:58N 47°18' W 002°09'0 0.0
2017-Nov-19 10:25N 47°18' W 002°09'0 0.0
2017-Nov-19 09:58N 47°18' W 002°09'0 0.0
2017-Nov-19 09:28N 47°18' W 002°09'0 0.0
2017-Nov-19 08:58N 47°18' W 002°09'0 0.0
2017-Nov-19 08:25N 47°18' W 002°09'0 0.0
2017-Nov-19 07:58N 47°18' W 002°09'0 0.0
2017-Nov-19 07:28N 47°18' W 002°09'0 0.0
2017-Nov-19 06:58N 47°18' W 002°09'0 0.0
2017-Nov-19 06:28N 47°18' W 002°09'0 0.0
2017-Nov-19 05:58N 47°18' W 002°09'0 0.0
2017-Nov-19 05:28N 47°18' W 002°09'0 0.0
2017-Nov-19 04:59N 47°18' W 002°09'0 0.0
2017-Nov-19 04:28N 47°18' W 002°09'0 0.0
2017-Nov-19 03:59N 47°18' W 002°09'0 0.0
2017-Nov-19 03:28N 47°18' W 002°09'0 0.0
2017-Nov-19 02:58N 47°18' W 002°09'0 0.0
2017-Nov-19 02:25N 47°18' W 002°09'0 0.0
2017-Nov-19 01:49N 47°18' W 002°09'0 0.0
2017-Nov-19 01:28N 47°18' W 002°09'0 0.0
2017-Nov-19 00:55N 47°18' W 002°09'0 0.0
2017-Nov-19 00:28N 47°18' W 002°09'0 0.0
2017-Nov-18 23:58N 47°18' W 002°09'0 0.0
2017-Nov-18 23:28N 47°18' W 002°09'0 0.0
2017-Nov-18 22:58N 47°18' W 002°09'0 0.0
2017-Nov-18 22:28N 47°18' W 002°09'0 0.0
2017-Nov-18 21:55N 47°18' W 002°09'0 0.0
2017-Nov-18 21:28N 47°18' W 002°09'0 0.0
2017-Nov-18 20:58N 47°18' W 002°09'0 0.0
2017-Nov-18 20:30N 47°18' W 002°09'1 1.9
2017-Nov-18 20:01N 47°17' W 002°10'611.3
2017-Nov-18 19:30N 47°13' W 002°16'612.5
2017-Nov-18 19:00N 47°08' W 002°21'510.2
2017-Nov-18 18:30N 47°04' W 002°26'714.5
2017-Nov-18 18:00N 47°01' W 002°36'916.7
2017-Nov-18 17:30N 47°01' W 002°48'1018.4
2017-Nov-18 16:58N 47°05' W 003°01'918.5
2017-Nov-18 16:30N 47°09' W 003°13'1018.6
2017-Nov-18 15:59N 47°13' W 003°25'918.7
2017-Nov-18 15:30N 47°17' W 003°37'1218.8
2017-Nov-18 14:53N 47°23' W 003°52'718.8
2017-Nov-18 14:30N 47°27' W 004°01'1018.8
2017-Nov-18 13:59N 47°33' W 004°12'918.7
2017-Nov-18 13:30N 47°38' W 004°23'918.5
2017-Nov-18 13:00N 47°43' W 004°34'918.2
2017-Nov-18 12:30N 47°48' W 004°46'917.6
2017-Nov-18 12:01N 47°53' W 004°57'917.6
2017-Nov-18 11:30N 47°58' W 005°08'918.0
2017-Nov-18 11:00N 48°03' W 005°19'917.9
2017-Nov-18 10:30N 48°09' W 005°28'918.6
2017-Nov-18 10:00N 48°17' W 005°36'1518.9
2017-Nov-18 09:13N 48°29' W 005°49'419.2
2017-Nov-18 09:01N 48°33' W 005°52'1313.2
2017-Nov-18 08:00N 48°46' W 005°54'914.1
2017-Nov-18 07:23N 48°53' W 005°47'715.8
2017-Nov-18 06:57N 48°57' W 005°39'918.7
2017-Nov-18 06:29N 49°01' W 005°27'918.5
2017-Nov-18 05:59N 49°06' W 005°14'918.0
2017-Nov-18 05:28N 49°10' W 005°02'817.6
2017-Nov-18 05:01N 49°14' W 004°51'917.3
2017-Nov-18 04:30N 49°19' W 004°40'917.3
2017-Nov-18 04:01N 49°24' W 004°29'1017.4
2017-Nov-18 03:28N 49°29' W 004°17'817.7
2017-Nov-18 03:00N 49°33' W 004°06'1018.2
2017-Nov-18 02:27N 49°38' W 003°52'918.9
2017-Nov-18 01:57N 49°42' W 003°39'919.7
2017-Nov-18 01:30N 49°46' W 003°28'1020.3
2017-Nov-18 01:00N 49°51' W 003°14'1020.7
2017-Nov-18 00:30N 49°56' W 002°59'1020.7
2017-Nov-18 00:00N 49°59' W 002°44'1120.6
2017-Nov-17 23:29N 50°02' W 002°28'1619.8
2017-Nov-17 22:40N 50°05' W 002°03'518.9
2017-Nov-17 22:25N 50°05' W 001°56'717.8
2017-Nov-17 22:00N 50°04' W 001°44'917.0
2017-Nov-17 21:30N 49°57' W 001°37'917.1
2017-Nov-17 21:00N 49°54' W 001°25'816.4
2017-Nov-17 20:30N 49°51' W 001°13'816.2
2017-Nov-17 20:00N 49°48' W 001°01'816.2
2017-Nov-17 19:31N 49°45' W 000°50'816.3
2017-Nov-17 19:01N 49°41' W 000°38'713.7
2017-Nov-17 18:30N 49°38' W 000°29'713.6
2017-Nov-17 18:00N 49°34' W 000°20'714.3
2017-Nov-17 17:31N 49°31' W 000°10'713.2
2017-Nov-17 17:00N 49°30' W 000°00'510.4
2017-Nov-17 16:30N 49°28' E 000°07'2 3.8
2017-Nov-17 15:59N 49°27' E 000°10'0 0.0
2017-Nov-17 15:29N 49°27' E 000°10'0 0.0
2017-Nov-17 14:59N 49°27' E 000°10'0 0.0
2017-Nov-17 14:29N 49°27' E 000°10'0 0.0
2017-Nov-17 13:59N 49°27' E 000°10'0 0.0
2017-Nov-17 13:29N 49°27' E 000°10'0 0.0
2017-Nov-17 12:59N 49°27' E 000°10'0 0.0
2017-Nov-17 12:29N 49°27' E 000°10'0 0.0
2017-Nov-17 11:59N 49°27' E 000°10'0 0.0
2017-Nov-17 11:29N 49°27' E 000°10'0 0.0
2017-Nov-17 10:59N 49°27' E 000°10'0 0.0
2017-Nov-17 10:29N 49°27' E 000°10'0 0.0
2017-Nov-17 09:59N 49°27' E 000°10'0 0.0
2017-Nov-17 09:26N 49°27' E 000°10'0 0.0
2017-Nov-17 08:59N 49°27' E 000°10'0 0.0
2017-Nov-17 08:29N 49°27' E 000°10'0 0.0
2017-Nov-17 07:59N 49°27' E 000°10'0 0.0
2017-Nov-17 07:29N 49°27' E 000°10'0 0.0
2017-Nov-17 06:59N 49°27' E 000°10'0 0.0
2017-Nov-17 06:29N 49°27' E 000°10'0 0.0
2017-Nov-17 05:59N 49°27' E 000°10'0 0.0
2017-Nov-17 05:29N 49°27' E 000°10'0 0.0
2017-Nov-17 04:59N 49°27' E 000°10'0 0.0
2017-Nov-17 04:29N 49°27' E 000°10'0 0.0
2017-Nov-17 03:59N 49°27' E 000°10'0 0.0
2017-Nov-17 03:29N 49°27' E 000°10'0 0.0
2017-Nov-17 02:59N 49°27' E 000°10'0 0.0
2017-Nov-17 02:29N 49°27' E 000°10'0 0.0
2017-Nov-17 01:59N 49°27' E 000°10'0 0.0
2017-Nov-17 01:29N 49°27' E 000°10'0 0.0
2017-Nov-17 00:59N 49°27' E 000°10'0 0.0
2017-Nov-17 00:29N 49°27' E 000°10'0 0.0
2017-Nov-16 23:59N 49°27' E 000°10'0 0.0
2017-Nov-16 23:29N 49°27' E 000°10'0 0.0
2017-Nov-16 22:59N 49°27' E 000°10'0 0.0
2017-Nov-16 22:29N 49°27' E 000°10'0 0.0
2017-Nov-16 21:59N 49°27' E 000°10'0 0.0
2017-Nov-16 21:26N 49°27' E 000°10'0 0.0
2017-Nov-16 20:59N 49°27' E 000°10'0 0.0
2017-Nov-16 20:29N 49°27' E 000°10'0 0.0
2017-Nov-16 19:59N 49°27' E 000°10'0 0.0
2017-Nov-16 19:29N 49°27' E 000°10'0 0.0
2017-Nov-16 18:59N 49°27' E 000°10'0 0.0
2017-Nov-16 18:29N 49°27' E 000°10'0 0.0
2017-Nov-16 17:59N 49°27' E 000°10'0 0.0
2017-Nov-16 17:29N 49°27' E 000°10'0 0.0
2017-Nov-16 16:59N 49°27' E 000°10'0 0.0
2017-Nov-16 16:29N 49°27' E 000°10'0 0.0
2017-Nov-16 15:59N 49°27' E 000°10'0 0.0
2017-Nov-16 15:29N 49°27' E 000°10'0 0.0
2017-Nov-16 14:59N 49°27' E 000°10'0 0.0
2017-Nov-16 14:29N 49°27' E 000°10'0 0.0
2017-Nov-16 13:59N 49°27' E 000°10'0 0.0
2017-Nov-16 13:29N 49°27' E 000°10'0 0.0
2017-Nov-16 12:59N 49°27' E 000°10'0 0.0
2017-Nov-16 12:29N 49°27' E 000°10'0 0.3
2017-Nov-16 12:00N 49°27' E 000°10'2 3.4
2017-Nov-16 11:30N 49°28' E 000°07'510.1
2017-Nov-16 11:00N 49°30' E 000°00'612.3
2017-Nov-16 10:30N 49°32' W 000°09'612.1
2017-Nov-16 10:00N 49°37' W 000°11'612.7
2017-Nov-16 09:30N 49°44' W 000°11'612.6
2017-Nov-16 09:00N 49°50' W 000°11'612.7
2017-Nov-16 08:30N 49°56' W 000°11'612.7
2017-Nov-16 08:00N 50°03' W 000°11'912.5
2017-Nov-16 07:16N 50°12' W 000°07'412.7
2017-Nov-16 06:57N 50°16' W 000°06'613.9
2017-Nov-16 06:30N 50°22' W 000°05'611.8
2017-Nov-16 06:00N 50°27' W 000°01'713.5
2017-Nov-16 05:30N 50°29' E 000°09'714.1
2017-Nov-16 05:00N 50°31' E 000°20'714.9
2017-Nov-16 04:30N 50°33' E 000°31'815.3
2017-Nov-16 04:00N 50°37' E 000°42'815.9
2017-Nov-16 03:30N 50°42' E 000°51'815.9
2017-Nov-16 03:00N 50°47' E 001°01'815.7
2017-Nov-16 02:30N 50°51' E 001°11'815.4
2017-Nov-16 02:00N 50°57' E 001°20'714.8
2017-Nov-16 01:30N 51°02' E 001°28'713.5
2017-Nov-16 01:00N 51°07' E 001°36'612.8
2017-Nov-16 00:30N 51°11' E 001°43'612.3
2017-Nov-16 00:00N 51°16' E 001°49'612.0
2017-Nov-15 23:31N 51°21' E 001°54'611.5
2017-Nov-15 23:01N 51°25' E 002°01'713.3
2017-Nov-15 22:30N 51°23' E 002°11'612.4
2017-Nov-15 22:00N 51°21' E 002°20'912.6
2017-Nov-15 21:19N 51°23' E 002°34'513.3
2017-Nov-15 20:56N 51°22' E 002°42'512.7
2017-Nov-15 20:30N 51°22' E 002°51'917.7
2017-Nov-15 20:00N 51°24' E 003°05'917.6
2017-Nov-15 19:30N 51°25' E 003°19'917.5
2017-Nov-15 19:00N 51°25' E 003°33'713.0
2017-Nov-15 18:30N 51°24' E 003°43'713.6
2017-Nov-15 18:00N 51°21' E 003°53'713.8
2017-Nov-15 17:31N 51°26' E 004°01'612.7
2017-Nov-15 17:01N 51°23' E 004°09'5 9.9
2017-Nov-15 16:30N 51°21' E 004°17'0 0.8
2017-Nov-15 16:00N 51°21' E 004°17'0 0.3
2017-Nov-15 15:30N 51°21' E 004°17'2 3.0
2017-Nov-15 15:00N 51°19' E 004°19'3 5.9
2017-Nov-15 14:30N 51°17' E 004°21'2 3.2
2017-Nov-15 13:59N 51°16' E 004°23'0 0.0
2017-Nov-15 13:29N 51°16' E 004°23'0 0.0
2017-Nov-15 12:59N 51°16' E 004°23'0 0.0
2017-Nov-15 12:29N 51°16' E 004°23'0 0.0
2017-Nov-15 11:56N 51°16' E 004°23'0 0.0
2017-Nov-15 11:29N 51°16' E 004°23'0 0.0
2017-Nov-15 10:59N 51°16' E 004°23'0 0.0
2017-Nov-15 10:26N 51°16' E 004°23'0 0.0
2017-Nov-15 09:59N 51°16' E 004°23'0 0.0
2017-Nov-15 09:26N 51°16' E 004°23'0 0.0
2017-Nov-15 08:59N 51°16' E 004°23'0 0.0
2017-Nov-15 08:29N 51°16' E 004°23'0 0.0
2017-Nov-15 07:56N 51°16' E 004°23'0 0.0
2017-Nov-15 07:29N 51°16' E 004°23'0 0.0
2017-Nov-15 06:59N 51°16' E 004°23'0 0.0
2017-Nov-15 06:26N 51°16' E 004°23'0 0.0
2017-Nov-15 05:59N 51°16' E 004°23'0 0.0
2017-Nov-15 05:29N 51°16' E 004°23'0 0.0
2017-Nov-15 04:53N 51°16' E 004°23'0 0.0
2017-Nov-15 04:26N 51°16' E 004°23'0 0.5
2017-Nov-15 04:00N 51°16' E 004°22'1 1.9
2017-Nov-15 03:30N 51°16' E 004°21'3 5.1
2017-Nov-15 03:01N 51°18' E 004°20'3 5.7
2017-Nov-15 02:30N 51°21' E 004°17'0 0.5
2017-Nov-15 02:01N 51°21' E 004°17'0 0.0
2017-Nov-15 01:30N 51°21' E 004°17'0 0.8
2017-Nov-15 01:00N 51°21' E 004°16'3 6.0
2017-Nov-15 00:30N 51°23' E 004°13'510.8
2017-Nov-15 00:00N 51°22' E 004°04'5 9.8
2017-Nov-14 23:31N 51°25' E 003°58'713.8
2017-Nov-14 23:00N 51°21' E 003°49'713.7
2017-Nov-14 22:30N 51°26' E 003°41'510.3
2017-Nov-14 22:00N 51°25' E 003°33'5 9.8
2017-Nov-14 21:30N 51°25' E 003°25'612.5
2017-Nov-14 21:00N 51°24' E 003°15'714.2
2017-Nov-14 20:30N 51°24' E 003°04'713.6
2017-Nov-14 20:00N 51°22' E 002°54'612.3
2017-Nov-14 19:29N 51°22' E 002°43'3 5.1
2017-Nov-14 18:55N 51°22' E 002°39'1 2.9
2017-Nov-14 18:26N 51°22' E 002°37'2 5.2
2017-Nov-14 17:59N 51°22' E 002°33'3 5.0
2017-Nov-14 17:29N 51°21' E 002°29'3 5.0
2017-Nov-14 16:58N 51°20' E 002°25'2 4.9
2017-Nov-14 16:30N 51°19' E 002°22'3 5.2
2017-Nov-14 16:00N 51°18' E 002°18'3 5.7
2017-Nov-14 15:31N 51°16' E 002°15'815.3
2017-Nov-14 15:00N 51°13' E 002°04'917.5
2017-Nov-14 14:30N 51°09' E 001°51'714.4
2017-Nov-14 14:01N 51°03' E 001°46'611.2
2017-Nov-14 13:30N 51°02' E 001°55'714.6
2017-Nov-14 13:01N 51°03' E 002°06'4 5.4
2017-Nov-14 12:19N 51°01' E 002°11'0 0.0
2017-Nov-14 11:43N 51°01' E 002°11'0 0.0
2017-Nov-14 11:28N 51°01' E 002°11'0 0.0
2017-Nov-14 10:58N 51°01' E 002°11'0 0.0
2017-Nov-14 10:28N 51°01' E 002°11'0 0.0
2017-Nov-14 09:58N 51°01' E 002°11'0 0.0
2017-Nov-14 09:16N 51°01' E 002°11'0 0.0
2017-Nov-14 08:49N 51°01' E 002°11'0 0.0
2017-Nov-14 08:19N 51°01' E 002°11'0 0.0
2017-Nov-14 07:43N 51°01' E 002°11'0 0.0
2017-Nov-14 07:28N 51°01' E 002°11'0 0.0
2017-Nov-14 06:19N 51°01' E 002°11'0 0.0
2017-Nov-14 05:52N 51°01' E 002°11'0 0.0
2017-Nov-14 04:49N 51°01' E 002°11'0 0.0
2017-Nov-14 04:22N 51°01' E 002°11'0 0.0
2017-Nov-14 03:49N 51°01' E 002°11'0 0.0
2017-Nov-14 03:19N 51°01' E 002°11'0 0.0
2017-Nov-14 02:43N 51°01' E 002°11'0 0.0
2017-Nov-14 02:25N 51°01' E 002°11'0 0.0
2017-Nov-14 01:58N 51°01' E 002°11'0 0.0
2017-Nov-14 01:28N 51°01' E 002°11'0 0.0
2017-Nov-14 00:43N 51°01' E 002°11'0 0.0
2017-Nov-14 00:25N 51°01' E 002°11'0 0.0
2017-Nov-13 23:52N 51°01' E 002°11'0 0.0
2017-Nov-13 23:25N 51°01' E 002°11'0 0.0
2017-Nov-13 22:31N 51°01' E 002°11'0 0.0
2017-Nov-13 22:22N 51°01' E 002°11'0 0.0
2017-Nov-13 21:55N 51°01' E 002°11'28 1.4
2017-Nov-13 02:00N 50°50' E 001°29'5910.4
2017-Nov-12 20:18N 50°19' E 000°10'412.5
2017-Nov-12 20:00N 50°18' E 000°05'713.1
2017-Nov-12 19:30N 50°17' W 000°06'713.3
2017-Nov-12 18:59N 50°16' W 000°16'713.4
2017-Nov-12 18:28N 50°14' W 000°27'713.7
2017-Nov-12 17:58N 50°13' W 000°37'714.2
2017-Nov-12 17:27N 50°11' W 000°48'2115.1
2017-Nov-12 16:03N 50°06' W 001°20'415.8
2017-Nov-12 15:47N 50°05' W 001°27'416.1
2017-Nov-12 15:30N 50°03' W 001°33'816.4
2017-Nov-12 15:01N 50°01' W 001°45'1019.4
2017-Nov-12 14:30N 49°60' W 002°00'1019.3
2017-Nov-12 14:00N 49°58' W 002°15'918.6
2017-Nov-12 13:31N 49°55' W 002°29'918.4
2017-Nov-12 13:00N 49°53' W 002°43'918.3
2017-Nov-12 12:30N 49°50' W 002°56'1118.5
2017-Nov-12 11:53N 49°47' W 003°13'6018.0
2017-Nov-12 08:34N 49°40' W 004°45'117.8
2017-Nov-12 08:29N 49°40' W 004°47'  
Track history (hours):
 
Tides and Currents Weather Stations Pressure Air Temp Water Temp Dewpoint Dewpoint Depression Visibility Wind Speed Wind Dir Waves Ship Positions

CMA-CGM Fort Saint Pierre

Last reported at 2017-Nov-20 00:30 UTC. Time now 2017-Nov-23 09:40 UTC.
Position N 45°48' W 005°45'.

Length 197 m; beam 30 m.

Type: Ship (hazmat cat D). MMSI: 226328000.

Date/timePositionNaut miles runAvg speedWind from/ knotsBaromVisibWave heightAir tempDewpointWater temp
2017-Nov-20 00:30N 45°48' W 005°45'918.8
2017-Nov-20 00:01N 45°53' W 005°33'1219.1
2017-Nov-19 23:23N 45°59' W 005°18'1019.3
2017-Nov-19 22:50N 46°04' W 005°05'1119.3
2017-Nov-19 22:15N 46°10' W 004°51'819.4
2017-Nov-19 21:51N 46°13' W 004°41'819.8
2017-Nov-19 21:28N 46°17' W 004°31'919.8
2017-Nov-19 21:01N 46°22' W 004°20'1019.8
2017-Nov-19 20:31N 46°27' W 004°08'1619.7
2017-Nov-19 19:42N 46°34' W 003°48'419.5
2017-Nov-19 19:30N 46°36' W 003°42'1219.7
2017-Nov-19 18:53N 46°42' W 003°27'1319.5
2017-Nov-19 18:13N 46°49' W 003°10'1819.3
2017-Nov-19 17:17N 46°58' W 002°48'519.1
2017-Nov-19 17:00N 47°00' W 002°41'918.8
2017-Nov-19 16:30N 47°04' W 002°29'713.3
2017-Nov-19 16:00N 47°08' W 002°21'713.8
2017-Nov-19 15:30N 47°14' W 002°16'611.3
2017-Nov-19 15:00N 47°18' W 002°09'0 0.3
2017-Nov-19 14:29N 47°18' W 002°09'0 0.0
2017-Nov-19 13:34N 47°18' W 002°09'0 0.0
2017-Nov-19 13:19N 47°18' W 002°09'0 0.0
2017-Nov-19 12:58N 47°18' W 002°09'0 0.0
2017-Nov-19 12:28N 47°18' W 002°09'0 0.0
2017-Nov-19 11:52N 47°18' W 002°09'0 0.0
2017-Nov-19 11:22N 47°18' W 002°09'0 0.0
2017-Nov-19 10:58N 47°18' W 002°09'0 0.0
2017-Nov-19 10:25N 47°18' W 002°09'0 0.0
2017-Nov-19 09:58N 47°18' W 002°09'0 0.0
2017-Nov-19 09:28N 47°18' W 002°09'0 0.0
2017-Nov-19 08:58N 47°18' W 002°09'0 0.0
2017-Nov-19 08:25N 47°18' W 002°09'0 0.0
2017-Nov-19 07:58N 47°18' W 002°09'0 0.0
2017-Nov-19 07:28N 47°18' W 002°09'0 0.0
2017-Nov-19 06:58N 47°18' W 002°09'0 0.0
2017-Nov-19 06:28N 47°18' W 002°09'0 0.0
2017-Nov-19 05:58N 47°18' W 002°09'0 0.0
2017-Nov-19 05:28N 47°18' W 002°09'0 0.0
2017-Nov-19 04:59N 47°18' W 002°09'0 0.0
2017-Nov-19 04:28N 47°18' W 002°09'0 0.0
2017-Nov-19 03:59N 47°18' W 002°09'0 0.0
2017-Nov-19 03:28N 47°18' W 002°09'0 0.0
2017-Nov-19 02:58N 47°18' W 002°09'0 0.0
2017-Nov-19 02:25N 47°18' W 002°09'0 0.0
2017-Nov-19 01:49N 47°18' W 002°09'0 0.0
2017-Nov-19 01:28N 47°18' W 002°09'0 0.0
2017-Nov-19 00:55N 47°18' W 002°09'0 0.0
2017-Nov-19 00:28N 47°18' W 002°09'0 0.0
2017-Nov-18 23:58N 47°18' W 002°09'0 0.0
2017-Nov-18 23:28N 47°18' W 002°09'0 0.0
2017-Nov-18 22:58N 47°18' W 002°09'0 0.0
2017-Nov-18 22:28N 47°18' W 002°09'0 0.0
2017-Nov-18 21:55N 47°18' W 002°09'0 0.0
2017-Nov-18 21:28N 47°18' W 002°09'0 0.0
2017-Nov-18 20:58N 47°18' W 002°09'0 0.0
2017-Nov-18 20:30N 47°18' W 002°09'1 1.9
2017-Nov-18 20:01N 47°17' W 002°10'611.3
2017-Nov-18 19:30N 47°13' W 002°16'612.5
2017-Nov-18 19:00N 47°08' W 002°21'510.2
2017-Nov-18 18:30N 47°04' W 002°26'714.5
2017-Nov-18 18:00N 47°01' W 002°36'916.7
2017-Nov-18 17:30N 47°01' W 002°48'1018.4
2017-Nov-18 16:58N 47°05' W 003°01'918.5
2017-Nov-18 16:30N 47°09' W 003°13'1018.6
2017-Nov-18 15:59N 47°13' W 003°25'918.7
2017-Nov-18 15:30N 47°17' W 003°37'1218.8
2017-Nov-18 14:53N 47°23' W 003°52'718.8
2017-Nov-18 14:30N 47°27' W 004°01'1018.8
2017-Nov-18 13:59N 47°33' W 004°12'918.7
2017-Nov-18 13:30N 47°38' W 004°23'918.5
2017-Nov-18 13:00N 47°43' W 004°34'918.2
2017-Nov-18 12:30N 47°48' W 004°46'917.6
2017-Nov-18 12:01N 47°53' W 004°57'917.6
2017-Nov-18 11:30N 47°58' W 005°08'918.0
2017-Nov-18 11:00N 48°03' W 005°19'917.9
2017-Nov-18 10:30N 48°09' W 005°28'918.6
2017-Nov-18 10:00N 48°17' W 005°36'1518.9
2017-Nov-18 09:13N 48°29' W 005°49'419.2
2017-Nov-18 09:01N 48°33' W 005°52'1313.2
2017-Nov-18 08:00N 48°46' W 005°54'914.1
2017-Nov-18 07:23N 48°53' W 005°47'715.8
2017-Nov-18 06:57N 48°57' W 005°39'918.7
2017-Nov-18 06:29N 49°01' W 005°27'918.5
2017-Nov-18 05:59N 49°06' W 005°14'918.0
2017-Nov-18 05:28N 49°10' W 005°02'817.6
2017-Nov-18 05:01N 49°14' W 004°51'917.3
2017-Nov-18 04:30N 49°19' W 004°40'917.3
2017-Nov-18 04:01N 49°24' W 004°29'1017.4
2017-Nov-18 03:28N 49°29' W 004°17'817.7
2017-Nov-18 03:00N 49°33' W 004°06'1018.2
2017-Nov-18 02:27N 49°38' W 003°52'918.9
2017-Nov-18 01:57N 49°42' W 003°39'919.7
2017-Nov-18 01:30N 49°46' W 003°28'1020.3
2017-Nov-18 01:00N 49°51' W 003°14'1020.7
2017-Nov-18 00:30N 49°56' W 002°59'1020.7
2017-Nov-18 00:00N 49°59' W 002°44'1120.6
2017-Nov-17 23:29N 50°02' W 002°28'1619.8
2017-Nov-17 22:40N 50°05' W 002°03'518.9
2017-Nov-17 22:25N 50°05' W 001°56'717.8
2017-Nov-17 22:00N 50°04' W 001°44'917.0
2017-Nov-17 21:30N 49°57' W 001°37'917.1
2017-Nov-17 21:00N 49°54' W 001°25'816.4
2017-Nov-17 20:30N 49°51' W 001°13'816.2
2017-Nov-17 20:00N 49°48' W 001°01'816.2
2017-Nov-17 19:31N 49°45' W 000°50'816.3
2017-Nov-17 19:01N 49°41' W 000°38'713.7
2017-Nov-17 18:30N 49°38' W 000°29'713.6
2017-Nov-17 18:00N 49°34' W 000°20'714.3
2017-Nov-17 17:31N 49°31' W 000°10'713.2
2017-Nov-17 17:00N 49°30' W 000°00'510.4
2017-Nov-17 16:30N 49°28' E 000°07'2 3.8
2017-Nov-17 15:59N 49°27' E 000°10'0 0.0
2017-Nov-17 15:29N 49°27' E 000°10'0 0.0
2017-Nov-17 14:59N 49°27' E 000°10'0 0.0
2017-Nov-17 14:29N 49°27' E 000°10'0 0.0
2017-Nov-17 13:59N 49°27' E 000°10'0 0.0
2017-Nov-17 13:29N 49°27' E 000°10'0 0.0
2017-Nov-17 12:59N 49°27' E 000°10'0 0.0
2017-Nov-17 12:29N 49°27' E 000°10'0 0.0
2017-Nov-17 11:59N 49°27' E 000°10'0 0.0
2017-Nov-17 11:29N 49°27' E 000°10'0 0.0
2017-Nov-17 10:59N 49°27' E 000°10'0 0.0
2017-Nov-17 10:29N 49°27' E 000°10'0 0.0
2017-Nov-17 09:59N 49°27' E 000°10'0 0.0
2017-Nov-17 09:26N 49°27' E 000°10'0 0.0
2017-Nov-17 08:59N 49°27' E 000°10'0 0.0
2017-Nov-17 08:29N 49°27' E 000°10'0 0.0
2017-Nov-17 07:59N 49°27' E 000°10'0 0.0
2017-Nov-17 07:29N 49°27' E 000°10'0 0.0
2017-Nov-17 06:59N 49°27' E 000°10'0 0.0
2017-Nov-17 06:29N 49°27' E 000°10'0 0.0
2017-Nov-17 05:59N 49°27' E 000°10'0 0.0
2017-Nov-17 05:29N 49°27' E 000°10'0 0.0
2017-Nov-17 04:59N 49°27' E 000°10'0 0.0
2017-Nov-17 04:29N 49°27' E 000°10'0 0.0
2017-Nov-17 03:59N 49°27' E 000°10'0 0.0
2017-Nov-17 03:29N 49°27' E 000°10'0 0.0
2017-Nov-17 02:59N 49°27' E 000°10'0 0.0
2017-Nov-17 02:29N 49°27' E 000°10'0 0.0
2017-Nov-17 01:59N 49°27' E 000°10'0 0.0
2017-Nov-17 01:29N 49°27' E 000°10'0 0.0
2017-Nov-17 00:59N 49°27' E 000°10'0 0.0
2017-Nov-17 00:29N 49°27' E 000°10'0 0.0
2017-Nov-16 23:59N 49°27' E 000°10'0 0.0
2017-Nov-16 23:29N 49°27' E 000°10'0 0.0
2017-Nov-16 22:59N 49°27' E 000°10'0 0.0
2017-Nov-16 22:29N 49°27' E 000°10'0 0.0
2017-Nov-16 21:59N 49°27' E 000°10'0 0.0
2017-Nov-16 21:26N 49°27' E 000°10'0 0.0
2017-Nov-16 20:59N 49°27' E 000°10'0 0.0
2017-Nov-16 20:29N 49°27' E 000°10'0 0.0
2017-Nov-16 19:59N 49°27' E 000°10'0 0.0
2017-Nov-16 19:29N 49°27' E 000°10'0 0.0
2017-Nov-16 18:59N 49°27' E 000°10'0 0.0
2017-Nov-16 18:29N 49°27' E 000°10'0 0.0
2017-Nov-16 17:59N 49°27' E 000°10'0 0.0
2017-Nov-16 17:29N 49°27' E 000°10'0 0.0
2017-Nov-16 16:59N 49°27' E 000°10'0 0.0
2017-Nov-16 16:29N 49°27' E 000°10'0 0.0
2017-Nov-16 15:59N 49°27' E 000°10'0 0.0
2017-Nov-16 15:29N 49°27' E 000°10'0 0.0
2017-Nov-16 14:59N 49°27' E 000°10'0 0.0
2017-Nov-16 14:29N 49°27' E 000°10'0 0.0
2017-Nov-16 13:59N 49°27' E 000°10'0 0.0
2017-Nov-16 13:29N 49°27' E 000°10'0 0.0
2017-Nov-16 12:59N 49°27' E 000°10'0 0.0
2017-Nov-16 12:29N 49°27' E 000°10'0 0.3
2017-Nov-16 12:00N 49°27' E 000°10'2 3.4
2017-Nov-16 11:30N 49°28' E 000°07'510.1
2017-Nov-16 11:00N 49°30' E 000°00'612.3
2017-Nov-16 10:30N 49°32' W 000°09'612.1
2017-Nov-16 10:00N 49°37' W 000°11'612.7
2017-Nov-16 09:30N 49°44' W 000°11'612.6
2017-Nov-16 09:00N 49°50' W 000°11'612.7
2017-Nov-16 08:30N 49°56' W 000°11'612.7
2017-Nov-16 08:00N 50°03' W 000°11'912.5
2017-Nov-16 07:16N 50°12' W 000°07'412.7
2017-Nov-16 06:57N 50°16' W 000°06'613.9
2017-Nov-16 06:30N 50°22' W 000°05'611.8
2017-Nov-16 06:00N 50°27' W 000°01'713.5
2017-Nov-16 05:30N 50°29' E 000°09'714.1
2017-Nov-16 05:00N 50°31' E 000°20'714.9
2017-Nov-16 04:30N 50°33' E 000°31'815.3
2017-Nov-16 04:00N 50°37' E 000°42'815.9
2017-Nov-16 03:30N 50°42' E 000°51'815.9
2017-Nov-16 03:00N 50°47' E 001°01'815.7
2017-Nov-16 02:30N 50°51' E 001°11'815.4
2017-Nov-16 02:00N 50°57' E 001°20'714.8
2017-Nov-16 01:30N 51°02' E 001°28'713.5
2017-Nov-16 01:00N 51°07' E 001°36'612.8
2017-Nov-16 00:30N 51°11' E 001°43'612.3
2017-Nov-16 00:00N 51°16' E 001°49'612.0
2017-Nov-15 23:31N 51°21' E 001°54'611.5
2017-Nov-15 23:01N 51°25' E 002°01'713.3
2017-Nov-15 22:30N 51°23' E 002°11'612.4
2017-Nov-15 22:00N 51°21' E 002°20'912.6
2017-Nov-15 21:19N 51°23' E 002°34'513.3
2017-Nov-15 20:56N 51°22' E 002°42'512.7
2017-Nov-15 20:30N 51°22' E 002°51'917.7
2017-Nov-15 20:00N 51°24' E 003°05'917.6
2017-Nov-15 19:30N 51°25' E 003°19'917.5
2017-Nov-15 19:00N 51°25' E 003°33'713.0
2017-Nov-15 18:30N 51°24' E 003°43'713.6
2017-Nov-15 18:00N 51°21' E 003°53'713.8
2017-Nov-15 17:31N 51°26' E 004°01'612.7
2017-Nov-15 17:01N 51°23' E 004°09'5 9.9
2017-Nov-15 16:30N 51°21' E 004°17'0 0.8
2017-Nov-15 16:00N 51°21' E 004°17'0 0.3
2017-Nov-15 15:30N 51°21' E 004°17'2 3.0
2017-Nov-15 15:00N 51°19' E 004°19'3 5.9
2017-Nov-15 14:30N 51°17' E 004°21'2 3.2
2017-Nov-15 13:59N 51°16' E 004°23'0 0.0
2017-Nov-15 13:29N 51°16' E 004°23'0 0.0
2017-Nov-15 12:59N 51°16' E 004°23'0 0.0
2017-Nov-15 12:29N 51°16' E 004°23'0 0.0
2017-Nov-15 11:56N 51°16' E 004°23'0 0.0
2017-Nov-15 11:29N 51°16' E 004°23'0 0.0
2017-Nov-15 10:59N 51°16' E 004°23'0 0.0
2017-Nov-15 10:26N 51°16' E 004°23'0 0.0
2017-Nov-15 09:59N 51°16' E 004°23'0 0.0
2017-Nov-15 09:26N 51°16' E 004°23'0 0.0
2017-Nov-15 08:59N 51°16' E 004°23'0 0.0
2017-Nov-15 08:29N 51°16' E 004°23'0 0.0
2017-Nov-15 07:56N 51°16' E 004°23'0 0.0
2017-Nov-15 07:29N 51°16' E 004°23'0 0.0
2017-Nov-15 06:59N 51°16' E 004°23'0 0.0
2017-Nov-15 06:26N 51°16' E 004°23'0 0.0
2017-Nov-15 05:59N 51°16' E 004°23'0 0.0
2017-Nov-15 05:29N 51°16' E 004°23'0 0.0
2017-Nov-15 04:53N 51°16' E 004°23'0 0.0
2017-Nov-15 04:26N 51°16' E 004°23'0 0.5
2017-Nov-15 04:00N 51°16' E 004°22'1 1.9
2017-Nov-15 03:30N 51°16' E 004°21'3 5.1
2017-Nov-15 03:01N 51°18' E 004°20'3 5.7
2017-Nov-15 02:30N 51°21' E 004°17'0 0.5
2017-Nov-15 02:01N 51°21' E 004°17'0 0.0
2017-Nov-15 01:30N 51°21' E 004°17'0 0.8
2017-Nov-15 01:00N 51°21' E 004°16'3 6.0
2017-Nov-15 00:30N 51°23' E 004°13'510.8
2017-Nov-15 00:00N 51°22' E 004°04'5 9.8
2017-Nov-14 23:31N 51°25' E 003°58'713.8
2017-Nov-14 23:00N 51°21' E 003°49'713.7
2017-Nov-14 22:30N 51°26' E 003°41'510.3
2017-Nov-14 22:00N 51°25' E 003°33'5 9.8
2017-Nov-14 21:30N 51°25' E 003°25'612.5
2017-Nov-14 21:00N 51°24' E 003°15'714.2
2017-Nov-14 20:30N 51°24' E 003°04'713.6
2017-Nov-14 20:00N 51°22' E 002°54'612.3
2017-Nov-14 19:29N 51°22' E 002°43'3 5.1
2017-Nov-14 18:55N 51°22' E 002°39'1 2.9
2017-Nov-14 18:26N 51°22' E 002°37'2 5.2
2017-Nov-14 17:59N 51°22' E 002°33'3 5.0
2017-Nov-14 17:29N 51°21' E 002°29'3 5.0
2017-Nov-14 16:58N 51°20' E 002°25'2 4.9
2017-Nov-14 16:30N 51°19' E 002°22'3 5.2
2017-Nov-14 16:00N 51°18' E 002°18'3 5.7
2017-Nov-14 15:31N 51°16' E 002°15'815.3
2017-Nov-14 15:00N 51°13' E 002°04'917.5
2017-Nov-14 14:30N 51°09' E 001°51'714.4
2017-Nov-14 14:01N 51°03' E 001°46'611.2
2017-Nov-14 13:30N 51°02' E 001°55'714.6
2017-Nov-14 13:01N 51°03' E 002°06'4 5.4
2017-Nov-14 12:19N 51°01' E 002°11'0 0.0
2017-Nov-14 11:43N 51°01' E 002°11'0 0.0
2017-Nov-14 11:28N 51°01' E 002°11'0 0.0
2017-Nov-14 10:58N 51°01' E 002°11'0 0.0
2017-Nov-14 10:28N 51°01' E 002°11'0 0.0
2017-Nov-14 09:58N 51°01' E 002°11'0 0.0
2017-Nov-14 09:16N 51°01' E 002°11'0 0.0
2017-Nov-14 08:49N 51°01' E 002°11'0 0.0
2017-Nov-14 08:19N 51°01' E 002°11'0 0.0
2017-Nov-14 07:43N 51°01' E 002°11'0 0.0
2017-Nov-14 07:28N 51°01' E 002°11'0 0.0
2017-Nov-14 06:19N 51°01' E 002°11'0 0.0
2017-Nov-14 05:52N 51°01' E 002°11'0 0.0
2017-Nov-14 04:49N 51°01' E 002°11'0 0.0
2017-Nov-14 04:22N 51°01' E 002°11'0 0.0
2017-Nov-14 03:49N 51°01' E 002°11'0 0.0
2017-Nov-14 03:19N 51°01' E 002°11'0 0.0
2017-Nov-14 02:43N 51°01' E 002°11'0 0.0
2017-Nov-14 02:25N 51°01' E 002°11'0 0.0
2017-Nov-14 01:58N 51°01' E 002°11'0 0.0
2017-Nov-14 01:28N 51°01' E 002°11'0 0.0
2017-Nov-14 00:43N 51°01' E 002°11'0 0.0
2017-Nov-14 00:25N 51°01' E 002°11'0 0.0
2017-Nov-13 23:52N 51°01' E 002°11'0 0.0
2017-Nov-13 23:25N 51°01' E 002°11'0 0.0
2017-Nov-13 22:31N 51°01' E 002°11'0 0.0
2017-Nov-13 22:22N 51°01' E 002°11'0 0.0
2017-Nov-13 21:55N 51°01' E 002°11'28 1.4
2017-Nov-13 02:00N 50°50' E 001°29'5910.4
2017-Nov-12 20:18N 50°19' E 000°10'412.5
2017-Nov-12 20:00N 50°18' E 000°05'713.1
2017-Nov-12 19:30N 50°17' W 000°06'713.3
2017-Nov-12 18:59N 50°16' W 000°16'713.4
2017-Nov-12 18:28N 50°14' W 000°27'713.7
2017-Nov-12 17:58N 50°13' W 000°37'714.2
2017-Nov-12 17:27N 50°11' W 000°48'2115.1
2017-Nov-12 16:03N 50°06' W 001°20'415.8
2017-Nov-12 15:47N 50°05' W 001°27'416.1
2017-Nov-12 15:30N 50°03' W 001°33'816.4
2017-Nov-12 15:01N 50°01' W 001°45'1019.4
2017-Nov-12 14:30N 49°60' W 002°00'1019.3
2017-Nov-12 14:00N 49°58' W 002°15'918.6
2017-Nov-12 13:31N 49°55' W 002°29'918.4
2017-Nov-12 13:00N 49°53' W 002°43'918.3
2017-Nov-12 12:30N 49°50' W 002°56'1118.5
2017-Nov-12 11:53N 49°47' W 003°13'6018.0
2017-Nov-12 08:34N 49°40' W 004°45'117.8
2017-Nov-12 08:29N 49°40' W 004°47'  

Dump ship's entire track history